Аэропорт: Адлер. Сочи

ICAO: URSS

METAR:
2018/05/20 23:00
URSS 202300Z 08001MPS 9999 SCT051 OVC100 20/16 Q1014 R06/090070 R02/090070 NOSIG RMK R02/05002MPS QFE759
METAR:
2018/05/20 21:25
TAF URSS 201956Z 2021/2121 06006MPS 9999 SCT030CB OVC100 
      TEMPO 2021/2106 VRB07G12MPS -TSRA 
      BECMG 2106/2107 15006G11MPS 
      TEMPO 2106/2112 VRB08G13MPS 3100 -TSRA BKN011 BKN030CB OVC100 
      BECMG 2112/2113 24005G10MPS 
      TEMPO 2112/2115 VRB07G12MPS -TSRA BKN011 BKN030CB OVC100 
      BECMG 2115/2117 VRB01MPS BKN011 BKN030CB OVC100 
      TEMPO 2115/2118 VRB07G12MPS 3100 -TSRA BKN006 BKN030CB OVC100